Time;durP1;ratioP1;P1;durP2;ratioP2;P2;SDS_P1;SDS_P2;PMS_P1;PMS_P2;Temp;Humidity;BMP_temperature;BMP_pressure;BME280_temperature;BME280_humidity;BME280_pressure;Samples;Min_cycle;Max_cycle;Signal;HPM_P1;HPM_P2
2021/11/27 00:00:46;;;;;;;0.50;0.50;;;3.70;99.90;;;;;;5095784;28;20202;-78
2021/11/27 00:03:13;;;;;;;0.40;0.40;;;3.70;99.90;;;;;;5095697;28;20197;-78
2021/11/27 00:05:41;;;;;;;0.50;0.50;;;3.70;99.90;;;;;;5094898;28;20307;-78
2021/11/27 00:08:10;;;;;;;0.60;0.60;;;3.70;99.90;;;;;;5095666;28;20212;-78
2021/11/27 00:10:38;;;;;;;1.02;0.50;;;3.70;99.90;;;;;;5095579;28;20201;-78
2021/11/27 00:13:06;;;;;;;0.40;0.40;;;3.70;99.90;;;;;;5095954;28;20193;-78
2021/11/27 00:15:34;;;;;;;0.40;0.40;;;3.70;99.90;;;;;;5095955;28;20195;-78
2021/11/27 00:18:02;;;;;;;1.05;1.05;;;3.80;99.90;;;;;;5095211;28;20211;-78
2021/11/27 00:20:33;;;;;;;0.40;0.40;;;3.80;99.90;;;;;;5095388;28;20193;-78
2021/11/27 00:22:59;;;;;;;0.40;0.40;;;3.80;99.90;;;;;;5096713;28;20181;-78
2021/11/27 00:25:26;;;;;;;0.50;0.50;;;3.80;99.90;;;;;;5095844;28;20224;-79
2021/11/27 00:27:53;;;;;;;0.40;0.40;;;3.80;99.90;;;;;;5096755;28;20196;-78
2021/11/27 00:30:23;;;;;;;0.50;0.40;;;3.70;99.90;;;;;;5106035;28;20193;-76
2021/11/27 00:32:50;;;;;;;0.40;0.40;;;3.70;99.90;;;;;;5118140;28;20209;-77
2021/11/27 00:35:20;;;;;;;0.40;0.40;;;3.70;99.90;;;;;;5117828;28;20189;-77
2021/11/27 00:37:47;;;;;;;0.40;0.40;;;3.70;99.90;;;;;;5117239;28;20205;-78
2021/11/27 00:40:14;;;;;;;0.40;0.40;;;3.80;99.90;;;;;;5117581;28;20196;-79
2021/11/27 00:42:41;;;;;;;0.50;0.50;;;3.80;99.90;;;;;;5117994;28;20256;-78
2021/11/27 00:45:12;;;;;;;0.40;0.40;;;3.80;99.90;;;;;;5117784;28;20229;-78
2021/11/27 00:47:39;;;;;;;0.40;0.40;;;3.80;99.90;;;;;;5118005;28;20219;-78
2021/11/27 00:50:07;;;;;;;0.40;0.40;;;3.80;99.90;;;;;;5116907;28;20207;-78
2021/11/27 00:52:36;;;;;;;0.40;0.40;;;3.80;99.90;;;;;;5118375;28;20191;-78
2021/11/27 00:55:04;;;;;;;0.40;0.40;;;3.80;99.90;;;;;;5118632;28;20276;-79
2021/11/27 00:57:31;;;;;;;0.60;0.60;;;3.80;99.90;;;;;;5118245;28;20203;-79
2021/11/27 00:59:57;;;;;;;2.05;0.50;;;3.80;99.90;;;;;;5117357;28;20225;-78
2021/11/27 01:02:24;;;;;;;0.40;0.30;;;3.90;99.90;;;;;;5118116;28;20193;-79
2021/11/27 01:04:51;;;;;;;0.40;0.40;;;3.90;99.90;;;;;;5118146;28;20196;-78
2021/11/27 01:07:18;;;;;;;0.98;0.98;;;3.90;99.90;;;;;;5116886;28;20221;-78
2021/11/27 01:09:46;;;;;;;0.40;0.40;;;3.90;99.90;;;;;;5098904;28;20582;-77
2021/11/27 01:12:13;;;;;;;0.55;0.55;;;3.80;99.90;;;;;;5096259;28;20644;-77
2021/11/27 01:14:40;;;;;;;0.40;0.40;;;3.80;99.90;;;;;;5097142;28;20197;-78
2021/11/27 01:17:08;;;;;;;0.40;0.40;;;3.80;99.90;;;;;;5096651;28;20201;-77
2021/11/27 01:19:37;;;;;;;1.35;1.35;;;3.80;99.90;;;;;;5096208;28;20574;-78
2021/11/27 01:22:07;;;;;;;0.40;0.40;;;3.80;99.90;;;;;;5096613;28;20197;-77
2021/11/27 01:24:34;;;;;;;0.40;0.40;;;3.80;99.90;;;;;;5095836;28;20189;-77
2021/11/27 01:27:02;;;;;;;0.40;0.40;;;3.80;99.90;;;;;;5095869;28;20197;-77
2021/11/27 01:29:29;;;;;;;1.75;0.40;;;3.80;99.90;;;;;;5095687;28;20727;-78
2021/11/27 01:31:56;;;;;;;2.05;0.95;;;3.80;99.90;;;;;;5095835;28;20198;-77
2021/11/27 01:34:24;;;;;;;1.15;0.60;;;3.80;99.90;;;;;;5095893;28;20685;-78
2021/11/27 01:36:50;;;;;;;0.50;0.40;;;3.80;99.90;;;;;;5095765;28;20620;-77
2021/11/27 01:39:17;;;;;;;0.40;0.40;;;3.80;99.90;;;;;;5095092;28;20232;-78
2021/11/27 01:41:45;;;;;;;0.50;0.50;;;3.80;99.90;;;;;;5095468;28;20201;-78
2021/11/27 01:44:13;;;;;;;1.02;1.02;;;3.90;99.90;;;;;;5096254;28;20246;-78
2021/11/27 01:46:40;;;;;;;0.40;0.40;;;3.90;99.90;;;;;;5096124;28;20248;-78
2021/11/27 01:49:08;;;;;;;0.40;0.40;;;3.80;99.90;;;;;;5095944;28;20218;-77
2021/11/27 01:51:37;;;;;;;0.40;0.40;;;3.90;99.90;;;;;;5096323;28;20681;-77
2021/11/27 01:54:08;;;;;;;0.50;0.50;;;3.90;99.90;;;;;;5096729;28;20543;-78
2021/11/27 01:56:37;;;;;;;0.40;0.30;;;3.80;99.90;;;;;;5096237;28;20199;-78
2021/11/27 01:59:05;;;;;;;0.40;0.40;;;3.80;99.90;;;;;;5095538;28;20220;-77
2021/11/27 02:01:35;;;;;;;0.40;0.40;;;3.80;99.90;;;;;;5096215;28;20208;-77
2021/11/27 02:04:04;;;;;;;0.88;0.88;;;3.90;99.90;;;;;;5095251;28;20189;-78
2021/11/27 02:06:32;;;;;;;0.40;0.40;;;3.90;99.90;;;;;;5095546;28;20689;-78
2021/11/27 02:09:01;;;;;;;1.70;0.95;;;3.90;99.90;;;;;;5095033;28;20213;-77
2021/11/27 02:11:31;;;;;;;0.85;0.85;;;3.90;99.90;;;;;;5095997;28;20258;-77
2021/11/27 02:13:59;;;;;;;0.40;0.40;;;3.80;99.90;;;;;;5095315;28;20201;-77
2021/11/27 02:16:27;;;;;;;0.40;0.40;;;3.80;99.90;;;;;;5095593;28;20190;-78
2021/11/27 02:18:55;;;;;;;0.40;0.40;;;3.80;99.90;;;;;;5095339;28;20217;-77
2021/11/27 02:21:24;;;;;;;1.92;1.83;;;3.80;99.90;;;;;;5095056;28;20676;-77
2021/11/27 02:23:53;;;;;;;1.67;1.58;;;3.80;99.90;;;;;;5095766;28;20200;-78
2021/11/27 02:26:22;;;;;;;0.55;0.55;;;3.80;99.90;;;;;;5095404;28;20209;-78
2021/11/27 02:28:53;;;;;;;0.40;0.35;;;3.80;99.90;;;;;;5095317;28;20649;-76
2021/11/27 02:31:20;;;;;;;0.80;0.50;;;3.70;99.90;;;;;;5095358;28;20681;-78
2021/11/27 02:33:47;;;;;;;0.40;0.40;;;3.70;99.90;;;;;;5096090;28;20227;-77
2021/11/27 02:36:13;;;;;;;0.40;0.40;;;3.70;99.90;;;;;;5096447;28;20192;-76
2021/11/27 02:38:42;;;;;;;0.82;0.80;;;3.70;99.90;;;;;;5094998;28;20221;-78
2021/11/27 02:41:09;;;;;;;0.40;0.40;;;3.70;99.90;;;;;;5095487;28;20562;-78
2021/11/27 02:43:35;;;;;;;0.50;0.43;;;3.80;99.90;;;;;;5095935;28;20193;-78
2021/11/27 02:46:02;;;;;;;0.40;0.40;;;3.80;99.90;;;;;;5095550;28;20220;-78
2021/11/27 02:48:29;;;;;;;0.40;0.40;;;3.80;99.90;;;;;;5095624;28;20555;-78
2021/11/27 02:50:56;;;;;;;0.40;0.40;;;3.80;99.90;;;;;;5095052;28;20194;-77
2021/11/27 02:53:23;;;;;;;0.50;0.40;;;3.80;99.90;;;;;;5095541;28;20192;-78
2021/11/27 02:55:51;;;;;;;0.40;0.40;;;3.80;99.90;;;;;;5095914;28;20189;-77
2021/11/27 02:58:19;;;;;;;0.40;0.40;;;3.80;99.90;;;;;;5095084;28;20224;-78
2021/11/27 03:00:46;;;;;;;0.40;0.40;;;3.80;99.90;;;;;;5099093;28;20690;-78
2021/11/27 03:03:13;;;;;;;1.10;1.00;;;3.90;99.90;;;;;;5108794;28;20200;-77
2021/11/27 03:05:40;;;;;;;0.73;0.73;;;3.90;99.90;;;;;;5114018;28;20209;-79
2021/11/27 03:08:07;;;;;;;0.40;0.40;;;3.90;99.90;;;;;;5116062;28;20221;-78
2021/11/27 03:10:34;;;;;;;0.40;0.40;;;3.90;99.90;;;;;;5115000;28;20224;-78
2021/11/27 03:13:03;;;;;;;1.48;1.38;;;4.00;99.90;;;;;;5114998;28;20216;-78
2021/11/27 03:15:29;;;;;;;5.00;0.70;;;4.00;99.90;;;;;;5114672;28;20177;-78
2021/11/27 03:17:56;;;;;;;0.60;0.60;;;4.00;99.90;;;;;;5113535;28;20223;-78
2021/11/27 03:20:23;;;;;;;0.93;0.93;;;4.00;99.90;;;;;;5113993;28;20290;-78
2021/11/27 03:22:50;;;;;;;2.58;2.47;;;4.00;99.90;;;;;;5114955;28;20207;-78
2021/11/27 03:25:17;;;;;;;0.50;0.50;;;4.00;99.90;;;;;;5113769;28;20367;-77
2021/11/27 03:27:44;;;;;;;0.40;0.40;;;4.00;99.90;;;;;;5111769;28;20200;-78
2021/11/27 03:30:15;;;;;;;0.40;0.40;;;4.00;99.90;;;;;;5112160;28;20199;-78
2021/11/27 03:32:45;;;;;;;0.40;0.40;;;4.10;99.90;;;;;;5112631;28;20224;-78
2021/11/27 03:35:12;;;;;;;0.40;0.40;;;4.10;99.90;;;;;;5114379;28;20193;-78
2021/11/27 03:37:40;;;;;;;0.40;0.40;;;4.10;99.90;;;;;;5113983;28;20204;-77
2021/11/27 03:40:10;;;;;;;0.40;0.40;;;4.10;99.90;;;;;;5113779;28;20222;-81
2021/11/27 03:42:37;;;;;;;0.60;0.60;;;4.10;99.90;;;;;;5114673;28;20199;-79
2021/11/27 03:45:07;;;;;;;5.40;4.10;;;4.10;99.90;;;;;;5114761;28;20278;-83
2021/11/27 03:47:36;;;;;;;2.63;2.40;;;4.00;99.90;;;;;;5114692;28;20168;-80
2021/11/27 03:50:03;;;;;;;4.88;4.30;;;3.80;99.90;;;;;;5114361;28;20223;-80
2021/11/27 03:52:30;;;;;;;18.50;5.38;;;3.60;99.90;;;;;;5114317;28;20260;-82
2021/11/27 03:54:57;;;;;;;0.40;0.40;;;3.60;99.90;;;;;;5113941;28;20308;-77
2021/11/27 03:57:24;;;;;;;4.32;2.08;;;3.50;99.90;;;;;;5114605;28;20200;-83
2021/11/27 03:59:50;;;;;;;13.18;8.88;;;3.40;99.90;;;;;;5114647;28;20216;-79
2021/11/27 04:02:17;;;;;;;0.40;0.40;;;3.40;99.90;;;;;;5115305;28;20257;-79
2021/11/27 04:04:46;;;;;;;2.47;2.30;;;3.30;99.90;;;;;;5117229;28;20200;-82
2021/11/27 04:07:13;;;;;;;1.55;1.55;;;3.30;99.90;;;;;;5118462;28;20312;-83
2021/11/27 04:09:40;;;;;;;7.88;2.58;;;3.30;99.90;;;;;;5118080;28;20291;-82
2021/11/27 04:12:07;;;;;;;3.15;2.03;;;3.20;99.90;;;;;;5118314;28;20204;-82
2021/11/27 04:14:34;;;;;;;2.42;2.22;;;3.10;99.90;;;;;;5116550;28;20198;-79
2021/11/27 04:17:01;;;;;;;1.35;0.63;;;3.00;99.90;;;;;;5118246;28;20208;-79
2021/11/27 04:19:27;;;;;;;1.13;1.13;;;3.00;99.90;;;;;;5118653;28;20220;-82
2021/11/27 04:21:56;;;;;;;2.80;2.13;;;3.00;99.90;;;;;;5119030;28;20566;-77
2021/11/27 04:24:22;;;;;;;0.60;0.60;;;2.90;99.90;;;;;;5118714;28;20208;-80
2021/11/27 04:26:49;;;;;;;8.95;1.95;;;2.80;99.90;;;;;;5118187;28;20205;-83
2021/11/27 04:29:16;;;;;;;6.68;3.90;;;2.70;99.90;;;;;;5115233;28;20216;-82
2021/11/27 04:31:44;;;;;;;1.42;0.70;;;2.60;99.90;;;;;;5118132;28;20201;-82
2021/11/27 04:34:11;;;;;;;2.05;1.70;;;2.60;99.90;;;;;;5118159;28;20202;-81
2021/11/27 04:36:38;;;;;;;3.92;2.63;;;2.50;99.90;;;;;;5117581;28;20189;-84
2021/11/27 04:39:06;;;;;;;1.48;1.48;;;2.50;99.90;;;;;;5116923;28;20292;-80
2021/11/27 04:41:33;;;;;;;1.52;1.42;;;2.50;99.90;;;;;;5117187;28;20313;-81
2021/11/27 04:44:00;;;;;;;0.40;0.40;;;2.40;99.90;;;;;;5117610;28;20253;-77
2021/11/27 04:46:26;;;;;;;1.45;1.40;;;2.40;99.90;;;;;;5118474;28;20205;-83
2021/11/27 04:48:53;;;;;;;2.67;1.40;;;2.50;99.90;;;;;;5117969;28;20231;-82
2021/11/27 04:51:20;;;;;;;0.65;0.65;;;2.40;99.90;;;;;;5117712;28;20188;-80
2021/11/27 04:53:47;;;;;;;2.63;1.88;;;2.50;99.90;;;;;;5118800;28;20200;-79
2021/11/27 04:56:15;;;;;;;0.68;0.68;;;2.40;99.90;;;;;;5118211;28;20173;-81
2021/11/27 04:58:42;;;;;;;0.40;0.40;;;2.40;99.90;;;;;;5118457;28;20277;-78
2021/11/27 05:01:09;;;;;;;0.40;0.40;;;2.40;99.90;;;;;;5117571;28;20257;-83
2021/11/27 05:03:35;;;;;;;1.13;1.02;;;2.40;99.90;;;;;;5116627;28;20253;-83
2021/11/27 05:06:02;;;;;;;0.55;0.55;;;2.40;99.90;;;;;;5115291;28;20380;-80
2021/11/27 05:08:29;;;;;;;0.50;0.50;;;2.30;99.90;;;;;;5115523;28;20222;-80
2021/11/27 05:10:56;;;;;;;1.52;1.35;;;2.30;99.90;;;;;;5108673;28;20204;-81
2021/11/27 05:13:24;;;;;;;0.50;0.50;;;2.30;99.90;;;;;;5103059;28;20641;-79
2021/11/27 05:15:51;;;;;;;1.65;1.55;;;2.20;99.90;;;;;;5097328;28;20200;-78
2021/11/27 05:18:18;;;;;;;0.40;0.40;;;2.20;99.90;;;;;;5097376;28;20220;-78
2021/11/27 05:20:45;;;;;;;1.98;1.67;;;2.20;99.90;;;;;;5096725;28;20208;-77
2021/11/27 05:23:12;;;;;;;1.35;1.25;;;2.20;99.90;;;;;;5097069;28;20283;-78
2021/11/27 05:25:38;;;;;;;0.57;0.57;;;2.20;99.90;;;;;;5096661;28;20667;-79
2021/11/27 05:28:05;;;;;;;1.85;1.75;;;2.20;99.90;;;;;;5096761;28;20193;-79
2021/11/27 05:30:33;;;;;;;0.75;0.75;;;2.20;99.90;;;;;;5096871;28;20208;-78
2021/11/27 05:33:10;;;;;;;0.73;0.70;;;2.20;99.90;;;;;;5096492;28;20203;-77
2021/11/27 05:35:38;;;;;;;2.80;0.88;;;2.20;99.90;;;;;;5096617;28;20275;-78
2021/11/27 05:38:05;;;;;;;0.40;0.40;;;2.20;99.90;;;;;;5096727;28;20196;-78
2021/11/27 05:40:33;;;;;;;0.82;0.43;;;2.20;99.90;;;;;;5096144;28;20194;-79
2021/11/27 05:43:00;;;;;;;0.82;0.82;;;2.30;99.90;;;;;;5096841;28;20196;-79
2021/11/27 05:45:29;;;;;;;3.83;3.55;;;2.30;99.90;;;;;;5096312;28;20227;-79
2021/11/27 05:48:01;;;;;;;2.58;2.47;;;2.30;99.90;;;;;;5096733;28;20586;-78
2021/11/27 05:50:29;;;;;;;3.17;2.80;;;2.40;99.90;;;;;;5096377;28;20265;-79
2021/11/27 05:52:55;;;;;;;2.08;1.88;;;2.40;99.90;;;;;;5096120;28;20686;-79
2021/11/27 05:55:24;;;;;;;3.60;2.47;;;2.50;99.90;;;;;;5096394;28;20292;-79
2021/11/27 05:57:50;;;;;;;3.33;1.92;;;2.50;99.90;;;;;;5096157;28;20197;-78
2021/11/27 06:00:17;;;;;;;0.93;0.93;;;2.50;99.90;;;;;;5096399;28;20200;-78
2021/11/27 06:02:45;;;;;;;3.30;3.05;;;2.50;99.90;;;;;;5096455;28;20280;-78
2021/11/27 06:05:13;;;;;;;2.00;1.85;;;2.60;99.90;;;;;;5095511;28;20194;-78
2021/11/27 06:07:40;;;;;;;2.67;2.58;;;2.60;99.90;;;;;;5096204;28;20218;-80
2021/11/27 06:10:08;;;;;;;2.88;0.90;;;2.60;99.90;;;;;;5096109;28;20215;-79
2021/11/27 06:12:35;;;;;;;3.28;2.97;;;2.60;99.90;;;;;;5096353;28;20567;-79
2021/11/27 06:15:01;;;;;;;1.65;1.55;;;2.60;99.90;;;;;;5096210;28;20199;-77
2021/11/27 06:17:28;;;;;;;4.15;3.85;;;2.60;99.90;;;;;;5096351;28;20205;-79
2021/11/27 06:19:55;;;;;;;3.47;3.22;;;2.60;99.90;;;;;;5096762;28;20217;-79
2021/11/27 06:22:24;;;;;;;1.98;1.55;;;2.60;99.90;;;;;;5096302;28;20260;-79
2021/11/27 06:24:51;;;;;;;1.45;0.50;;;2.60;99.90;;;;;;5096724;28;20196;-79
2021/11/27 06:27:17;;;;;;;0.40;0.40;;;2.70;99.90;;;;;;5096221;28;20217;-79
2021/11/27 06:29:44;;;;;;;5.75;2.47;;;2.70;99.90;;;;;;5096153;28;20594;-79
2021/11/27 06:32:12;;;;;;;0.73;0.73;;;2.70;99.90;;;;;;5096929;28;20200;-79
2021/11/27 06:34:40;;;;;;;5.07;4.38;;;2.70;99.90;;;;;;5096406;28;20197;-78
2021/11/27 06:37:06;;;;;;;4.45;2.75;;;2.70;99.90;;;;;;5096240;28;20224;-78
2021/11/27 06:39:35;;;;;;;1.02;1.02;;;2.70;99.90;;;;;;5095758;28;20232;-79
2021/11/27 06:42:03;;;;;;;0.98;0.90;;;2.70;99.90;;;;;;5096380;28;20197;-79
2021/11/27 06:44:30;;;;;;;2.50;2.40;;;2.70;99.90;;;;;;5096285;28;20201;-78
2021/11/27 06:46:57;;;;;;;1.58;1.58;;;2.80;99.90;;;;;;5096300;28;20225;-79
2021/11/27 06:49:24;;;;;;;0.40;0.30;;;2.80;99.90;;;;;;5095856;28;20227;-79
2021/11/27 06:51:51;;;;;;;2.88;1.30;;;2.80;99.90;;;;;;5096304;28;20195;-78
2021/11/27 06:54:17;;;;;;;0.47;0.47;;;2.80;99.90;;;;;;5096080;28;20251;-76
2021/11/27 06:56:46;;;;;;;2.80;2.60;;;2.80;99.90;;;;;;5096420;28;20195;-79
2021/11/27 06:59:12;;;;;;;0.95;0.95;;;2.80;99.90;;;;;;5095633;28;20229;-78
2021/11/27 07:01:40;;;;;;;4.55;3.10;;;2.80;99.90;;;;;;5095534;28;20205;-79
2021/11/27 07:04:06;;;;;;;2.85;2.65;;;2.80;99.90;;;;;;5095153;28;20708;-79
2021/11/27 07:06:33;;;;;;;2.03;1.90;;;2.80;99.90;;;;;;5093505;28;20216;-78
2021/11/27 07:09:00;;;;;;;2.20;1.17;;;2.80;99.90;;;;;;5092409;28;20228;-79
2021/11/27 07:11:27;;;;;;;1.23;0.85;;;2.80;99.90;;;;;;5093001;28;20204;-77
2021/11/27 07:13:55;;;;;;;2.05;1.85;;;2.90;99.90;;;;;;5092851;28;20254;-77
2021/11/27 07:16:21;;;;;;;9.30;1.70;;;2.90;99.90;;;;;;5092905;28;20566;-78
2021/11/27 07:18:48;;;;;;;3.53;3.30;;;2.90;99.90;;;;;;5092244;28;20220;-80
2021/11/27 07:21:15;;;;;;;1.92;1.45;;;2.90;99.90;;;;;;5092272;28;20683;-78
2021/11/27 07:23:42;;;;;;;1.20;1.20;;;2.90;99.90;;;;;;5092696;28;20197;-78
2021/11/27 07:26:09;;;;;;;2.67;2.58;;;3.00;99.90;;;;;;5092328;28;20223;-78
2021/11/27 07:28:35;;;;;;;3.33;2.45;;;3.00;99.90;;;;;;5092239;28;20223;-78
2021/11/27 07:31:04;;;;;;;3.90;3.15;;;3.00;99.90;;;;;;5092127;28;20291;-78
2021/11/27 07:33:31;;;;;;;1.63;1.52;;;3.00;99.90;;;;;;5092952;28;20208;-78
2021/11/27 07:35:58;;;;;;;2.28;1.40;;;3.10;99.90;;;;;;5092883;28;20197;-80
2021/11/27 07:38:25;;;;;;;4.35;1.70;;;3.10;99.90;;;;;;5091853;28;20217;-78
2021/11/27 07:40:51;;;;;;;2.30;2.20;;;3.10;99.90;;;;;;5092432;28;20189;-74
2021/11/27 07:43:18;;;;;;;2.67;0.63;;;3.10;99.90;;;;;;5093098;28;20200;-78
2021/11/27 07:45:45;;;;;;;1.15;1.00;;;3.10;99.90;;;;;;5092459;28;20189;-78
2021/11/27 07:48:13;;;;;;;8.70;4.75;;;3.20;99.90;;;;;;5092415;28;20221;-78
2021/11/27 07:50:40;;;;;;;1.98;1.52;;;3.20;99.90;;;;;;5092347;28;20202;-78
2021/11/27 07:53:07;;;;;;;3.33;3.03;;;3.20;99.90;;;;;;5092110;28;20193;-78
2021/11/27 07:55:34;;;;;;;4.07;2.95;;;3.30;99.90;;;;;;5092273;28;20197;-78
2021/11/27 07:58:01;;;;;;;2.17;2.05;;;3.20;99.90;;;;;;5092710;28;20614;-78
2021/11/27 08:00:28;;;;;;;2.58;2.15;;;3.20;99.90;;;;;;5092013;28;20561;-78
2021/11/27 08:02:55;;;;;;;4.00;2.85;;;3.20;99.90;;;;;;5092162;28;20203;-75
2021/11/27 08:05:23;;;;;;;3.17;2.72;;;3.20;99.90;;;;;;5091553;28;20696;-79
2021/11/27 08:07:50;;;;;;;5.93;5.13;;;3.20;99.90;;;;;;5091889;28;20213;-77
2021/11/27 08:10:17;;;;;;;0.63;0.63;;;3.20;99.90;;;;;;5091963;28;20192;-78
2021/11/27 08:12:44;;;;;;;0.82;0.82;;;3.20;99.90;;;;;;5092736;28;20284;-81
2021/11/27 08:15:11;;;;;;;11.93;6.32;;;3.20;99.90;;;;;;5092945;28;20200;-79
2021/11/27 08:17:39;;;;;;;1.40;1.25;;;3.20;99.90;;;;;;5093614;28;20185;-79
2021/11/27 08:20:08;;;;;;;5.03;2.28;;;3.20;99.90;;;;;;5092365;28;20221;-78
2021/11/27 08:22:36;;;;;;;2.63;2.42;;;3.20;99.90;;;;;;5093021;28;20278;-79
2021/11/27 08:25:04;;;;;;;1.05;1.05;;;3.30;99.90;;;;;;5092241;28;20199;-79
2021/11/27 08:27:31;;;;;;;2.67;2.45;;;3.30;99.90;;;;;;5092316;28;20217;-78
2021/11/27 08:29:58;;;;;;;1.50;1.40;;;3.30;99.90;;;;;;5091710;28;20220;-79
2021/11/27 08:32:25;;;;;;;1.70;1.70;;;3.40;99.90;;;;;;5092985;28;20189;-78
2021/11/27 08:34:52;;;;;;;1.10;1.10;;;3.40;99.90;;;;;;5092355;28;20190;-79
2021/11/27 08:37:18;;;;;;;1.08;0.63;;;3.40;99.90;;;;;;5092582;28;20189;-79
2021/11/27 08:39:46;;;;;;;1.35;1.25;;;3.40;99.90;;;;;;5091750;28;20744;-78
2021/11/27 08:42:13;;;;;;;8.13;4.97;;;3.40;99.90;;;;;;5092066;28;20835;-78
2021/11/27 08:44:40;;;;;;;0.40;0.40;;;3.50;99.90;;;;;;5092451;28;20190;-79
2021/11/27 08:47:07;;;;;;;6.68;2.72;;;3.50;99.90;;;;;;5092235;28;20722;-78
2021/11/27 08:49:33;;;;;;;12.70;1.20;;;3.50;99.90;;;;;;5093071;28;20221;-79
2021/11/27 08:52:00;;;;;;;0.45;0.40;;;3.50;99.90;;;;;;5096121;28;20192;-79
2021/11/27 08:54:27;;;;;;;1.30;1.20;;;3.50;99.90;;;;;;5096700;28;20197;-78
2021/11/27 08:56:56;;;;;;;2.20;1.73;;;3.60;99.90;;;;;;5096329;28;20200;-78
2021/11/27 08:59:23;;;;;;;2.67;2.35;;;3.60;99.90;;;;;;5095617;28;20214;-79
2021/11/27 09:01:51;;;;;;;2.25;1.50;;;3.60;99.90;;;;;;5095146;28;20200;-78
2021/11/27 09:04:18;;;;;;;0.80;0.80;;;3.60;99.90;;;;;;5095284;28;20200;-79
2021/11/27 09:06:46;;;;;;;4.38;2.25;;;3.70;99.90;;;;;;5095293;28;20201;-77
2021/11/27 09:09:13;;;;;;;9.98;5.22;;;3.70;99.90;;;;;;5094615;28;20620;-78
2021/11/27 09:11:40;;;;;;;7.35;4.70;;;3.60;99.90;;;;;;5095824;28;20193;-80
2021/11/27 09:14:09;;;;;;;4.25;3.17;;;3.50;99.90;;;;;;5094847;28;20204;-77
2021/11/27 09:16:37;;;;;;;4.63;3.30;;;3.60;99.90;;;;;;5095286;28;20204;-79
2021/11/27 09:19:05;;;;;;;1.35;1.25;;;3.60;99.90;;;;;;5094721;28;20220;-78
2021/11/27 09:21:33;;;;;;;1.90;1.80;;;3.60;99.90;;;;;;5094875;28;20207;-78
2021/11/27 09:24:01;;;;;;;2.35;2.08;;;3.70;99.90;;;;;;5094792;28;20205;-78
2021/11/27 09:26:28;;;;;;;2.25;2.15;;;3.80;99.90;;;;;;5094788;28;20565;-79
2021/11/27 09:28:55;;;;;;;3.00;1.00;;;4.00;99.90;;;;;;5094604;28;20589;-78
2021/11/27 09:31:23;;;;;;;14.32;5.03;;;4.10;99.90;;;;;;5095132;28;20193;-78
2021/11/27 09:33:51;;;;;;;15.38;3.90;;;4.20;99.90;;;;;;5094779;28;20574;-79
2021/11/27 09:36:20;;;;;;;2.25;2.15;;;4.10;99.90;;;;;;5095566;28;20198;-78
2021/11/27 09:38:48;;;;;;;7.50;3.20;;;4.00;99.90;;;;;;5104473;28;20221;-83
2021/11/27 09:41:20;;;;;;;7.03;4.32;;;4.00;99.90;;;;;;5114879;28;20185;-77
2021/11/27 09:43:48;;;;;;;2.83;2.47;;;4.10;99.90;;;;;;5116323;28;20201;-78
2021/11/27 09:46:18;;;;;;;0.75;0.75;;;4.10;99.90;;;;;;5114482;28;20582;-76
2021/11/27 09:48:50;;;;;;;2.95;1.80;;;4.20;99.90;;;;;;5115850;28;20221;-77
2021/11/27 09:51:17;;;;;;;3.67;3.10;;;4.30;99.90;;;;;;5115881;28;20624;-76
2021/11/27 09:53:45;;;;;;;2.22;1.85;;;4.40;99.90;;;;;;5113949;28;20288;-77
2021/11/27 09:56:14;;;;;;;10.35;5.07;;;4.50;99.90;;;;;;5113344;28;20200;-77
2021/11/27 09:58:40;;;;;;;0.50;0.40;;;4.50;99.90;;;;;;5115285;28;20214;-78
2021/11/27 10:01:08;;;;;;;4.00;3.20;;;4.70;99.90;;;;;;5113817;28;20193;-76
2021/11/27 10:03:35;;;;;;;2.45;2.35;;;4.80;99.90;;;;;;5114625;28;20179;-77
2021/11/27 10:06:03;;;;;;;5.35;3.03;;;4.90;99.90;;;;;;5114513;28;20189;-76
2021/11/27 10:08:33;;;;;;;9.77;5.75;;;5.00;99.90;;;;;;5115261;28;20276;-77
2021/11/27 10:10:59;;;;;;;3.25;2.90;;;5.00;99.90;;;;;;5114831;28;20212;-77
2021/11/27 10:13:26;;;;;;;6.75;6.18;;;4.90;99.90;;;;;;5116975;28;20216;-77
2021/11/27 10:15:53;;;;;;;1.58;1.30;;;5.10;99.90;;;;;;5101077;28;20197;-76
2021/11/27 10:18:23;;;;;;;1.25;1.15;;;5.40;99.90;;;;;;5094745;28;20601;-77
2021/11/27 10:21:15;;;;;;;5.45;3.60;;;5.70;99.90;;;;;;5094601;28;20677;-77
2021/11/27 10:23:42;;;;;;;3.90;3.53;;;6.00;99.90;;;;;;5095963;28;20672;-76
2021/11/27 10:26:29;;;;;;;2.28;2.00;;;6.20;99.90;;;;;;5094487;28;20284;-76
2021/11/27 10:29:12;;;;;;;0.50;0.50;;;6.40;99.90;;;;;;5094312;28;20226;-76
2021/11/27 10:31:39;;;;;;;3.25;3.03;;;6.60;99.90;;;;;;5094020;28;20178;-77
2021/11/27 10:34:06;;;;;;;8.43;3.42;;;6.50;99.90;;;;;;5094163;28;20200;-76
2021/11/27 10:36:34;;;;;;;1.63;1.63;;;6.30;99.90;;;;;;5094354;28;20202;-77
2021/11/27 10:39:06;;;;;;;2.05;1.95;;;6.10;99.90;;;;;;5094151;28;20220;-77
2021/11/27 10:41:36;;;;;;;2.13;1.83;;;5.90;99.90;;;;;;5094277;28;20220;-77
2021/11/27 10:44:05;;;;;;;1.95;1.85;;;5.90;99.90;;;;;;5093571;28;20573;-77
2021/11/27 10:46:34;;;;;;;0.90;0.90;;;5.90;99.90;;;;;;5093542;28;20204;-76
2021/11/27 10:49:04;;;;;;;0.50;0.50;;;5.90;99.90;;;;;;5093656;28;20214;-76
2021/11/27 10:51:31;;;;;;;6.22;5.32;;;5.90;99.90;;;;;;5094362;28;20201;-77
2021/11/27 10:54:01;;;;;;;2.40;2.08;;;5.90;99.90;;;;;;5094214;28;20198;-75
2021/11/27 10:56:42;;;;;;;0.57;0.57;;;6.00;99.90;;;;;;5094942;28;20220;-77
2021/11/27 10:59:11;;;;;;;1.27;1.20;;;6.00;99.90;;;;;;5094797;28;20209;-76
2021/11/27 11:01:59;;;;;;;1.30;0.95;;;6.10;99.90;;;;;;5093854;28;20699;-76
2021/11/27 11:04:26;;;;;;;1.70;1.60;;;6.20;99.90;;;;;;5094124;28;20194;-77
2021/11/27 11:07:19;;;;;;;0.50;0.40;;;6.50;99.90;;;;;;5093972;28;20193;-77
2021/11/27 11:10:12;;;;;;;1.95;1.75;;;6.70;99.90;;;;;;5093187;28;20217;-77
2021/11/27 11:12:41;;;;;;;0.70;0.70;;;6.90;99.90;;;;;;5093475;28;20194;-77
2021/11/27 11:15:10;;;;;;;0.50;0.40;;;7.20;99.90;;;;;;5093719;28;20194;-77
2021/11/27 11:17:37;;;;;;;1.65;1.55;;;7.40;99.90;;;;;;5093216;28;20189;-77
2021/11/27 11:20:16;;;;;;;0.50;0.40;;;7.50;99.90;;;;;;5093509;28;20219;-76
2021/11/27 11:22:57;;;;;;;0.85;0.63;;;7.80;99.90;;;;;;5094180;28;20199;-76
2021/11/27 11:25:26;;;;;;;1.83;1.70;;;7.60;99.90;;;;;;5097656;28;20220;-77
2021/11/27 11:27:53;;;;;;;2.05;1.80;;;7.20;99.90;;;;;;5098706;28;20222;-76
2021/11/27 11:30:21;;;;;;;1.15;1.05;;;6.70;99.90;;;;;;5098033;28;20197;-77
2021/11/27 11:32:49;;;;;;;2.05;1.10;;;6.20;99.90;;;;;;5094260;28;20204;-77
2021/11/27 11:35:16;;;;;;;4.22;2.53;;;6.10;99.90;;;;;;5093343;28;20197;-76
2021/11/27 11:37:42;;;;;;;0.73;0.50;;;6.00;99.90;;;;;;5093384;28;20667;-77
2021/11/27 11:40:11;;;;;;;1.40;1.30;;;5.90;99.90;;;;;;5092149;28;20249;-76
2021/11/27 11:42:40;;;;;;;5.65;4.72;;;5.90;99.90;;;;;;5092247;28;20574;-76
2021/11/27 11:45:07;;;;;;;5.75;2.05;;;6.00;99.90;;;;;;5091593;28;20712;-77
2021/11/27 11:47:34;;;;;;;6.70;1.95;;;6.40;99.90;;;;;;5092341;28;20284;-77
2021/11/27 11:50:04;;;;;;;1.77;1.65;;;6.60;99.90;;;;;;5092174;28;20343;-75
2021/11/27 11:52:39;;;;;;;0.85;0.85;;;6.90;99.90;;;;;;5092422;28;20179;-78
2021/11/27 11:55:11;;;;;;;2.13;2.00;;;6.90;99.90;;;;;;5092456;28;20203;-76
2021/11/27 11:57:50;;;;;;;0.50;0.40;;;6.80;99.90;;;;;;5091556;28;20193;-76
2021/11/27 12:00:29;;;;;;;4.35;2.05;;;7.00;99.90;;;;;;5091942;28;20573;-76
2021/11/27 12:03:04;;;;;;;3.47;2.85;;;7.00;99.90;;;;;;5092562;28;20204;-77
2021/11/27 12:05:32;;;;;;;0.60;0.60;;;6.90;99.90;;;;;;5092172;28;20199;-77
2021/11/27 12:08:01;;;;;;;0.50;0.40;;;6.90;99.90;;;;;;5091554;28;20281;-77
2021/11/27 12:10:29;;;;;;;1.40;1.30;;;7.00;99.90;;;;;;5091199;28;20201;-76
2021/11/27 12:13:17;;;;;;;1.75;1.63;;;7.00;99.90;;;;;;5092593;28;20194;-76
2021/11/27 12:15:46;;;;;;;0.50;0.40;;;7.00;99.90;;;;;;5091527;28;20200;-77
2021/11/27 12:18:15;;;;;;;0.50;0.43;;;7.10;99.90;;;;;;5091852;28;20214;-77
2021/11/27 12:20:47;;;;;;;0.68;0.65;;;7.20;99.90;;;;;;5091019;28;20185;-76
2021/11/27 12:23:39;;;;;;;0.50;0.50;;;7.10;99.90;;;;;;5091093;28;20206;-77
2021/11/27 12:26:18;;;;;;;0.50;0.40;;;7.10;99.90;;;;;;5095584;28;20213;-77
2021/11/27 12:29:10;;;;;;;1.00;0.75;;;7.20;99.90;;;;;;5095180;28;20217;-77
2021/11/27 12:31:48;;;;;;;0.50;0.40;;;7.00;99.90;;;;;;5095576;28;20727;-78
2021/11/27 12:34:37;;;;;;;0.50;0.40;;;7.00;99.90;;;;;;5095264;28;20194;-78
2021/11/27 12:37:26;;;;;;;0.60;0.60;;;6.90;99.90;;;;;;5097002;28;20210;-76
2021/11/27 12:39:53;;;;;;;4.83;1.33;;;7.20;99.90;;;;;;5059899;28;1054070;-76
2021/11/27 12:42:37;;;;;;;0.50;0.40;;;7.30;99.90;;;;;;5096212;28;20197;-78
2021/11/27 12:45:08;;;;;;;0.50;0.40;;;7.40;99.90;;;;;;5096208;28;20205;-77
2021/11/27 12:47:43;;;;;;;0.50;0.40;;;7.60;99.90;;;;;;5096100;28;20197;-78
2021/11/27 12:50:23;;;;;;;0.57;0.47;;;7.60;99.90;;;;;;5095579;28;20231;-77
2021/11/27 12:52:51;;;;;;;0.85;0.85;;;7.50;99.90;;;;;;5096119;28;20199;-77
2021/11/27 12:55:35;;;;;;;3.05;1.88;;;7.40;99.90;;;;;;5095403;28;20197;-77
2021/11/27 12:58:32;;;;;;;0.50;0.40;;;7.30;99.90;;;;;;5095303;28;20191;-76
2021/11/27 13:01:01;;;;;;;1.35;0.80;;;7.30;99.90;;;;;;5095103;28;20636;-76
2021/11/27 13:03:29;;;;;;;1.60;0.60;;;7.20;99.90;;;;;;5095222;28;20202;-77
2021/11/27 13:05:56;;;;;;;0.55;0.55;;;7.00;99.90;;;;;;5095669;28;20198;-77